Time;durP1;ratioP1;P1;durP2;ratioP2;P2;SDS_P1;SDS_P2;PMS_P1;PMS_P2;Temp;Humidity;BMP_temperature;BMP_pressure;BME280_temperature;BME280_humidity;BME280_pressure;Samples;Min_cycle;Max_cycle;Signal;HPM_P1;HPM_P2
2021/10/22 00:00:57;;;;;;;2.30;1.30;;;;;;;;;;5033092;28;20216;-76
2021/10/22 00:04:01;;;;;;;3.97;1.50;;;;;;;;;;5032837;28;20212;-76
2021/10/22 00:07:05;;;;;;;4.00;1.47;;;;;;;;;;5010138;28;20193;-76
2021/10/22 00:10:10;;;;;;;6.20;1.70;;;;;;;;;;5032703;28;20201;-76
2021/10/22 00:13:14;;;;;;;5.07;1.70;;;;;;;;;;5032704;28;20185;-76
2021/10/22 00:16:21;;;;;;;4.73;1.40;;;;;;;;;;5034130;28;20216;-76
2021/10/22 00:19:25;;;;;;;5.03;1.37;;;;;;;;;;5021197;28;20185;-76
2021/10/22 00:22:29;;;;;;;5.30;2.10;;;;;;;;;;5021180;28;20228;-76
2021/10/22 00:25:33;;;;;;;2.33;1.23;;;;;;;;;;5021401;28;20221;-76
2021/10/22 00:28:39;;;;;;;6.53;1.93;;;;;;;;;;5021377;28;20627;-75
2021/10/22 00:31:43;;;;;;;5.10;1.40;;;;;;;;;;5032444;28;20220;-75
2021/10/22 00:34:47;;;;;;;4.13;1.73;;;;;;;;;;5033158;28;20196;-76
2021/10/22 00:37:52;;;;;;;4.77;1.70;;;;;;;;;;5021287;28;20180;-76
2021/10/22 00:40:56;;;;;;;2.60;1.50;;;;;;;;;;5021111;28;20220;-76
2021/10/22 00:44:00;;;;;;;5.20;1.80;;;;;;;;;;5032269;28;20200;-75
2021/10/22 00:47:04;;;;;;;4.30;1.90;;;;;;;;;;5032920;28;20228;-76
2021/10/22 00:50:08;;;;;;;8.07;2.47;;;;;;;;;;5032243;28;20652;-76
2021/10/22 00:53:12;;;;;;;3.30;1.33;;;;;;;;;;5032952;28;20200;-76
2021/10/22 00:56:17;;;;;;;3.67;1.30;;;;;;;;;;5033235;28;20532;-76
2021/10/22 00:59:21;;;;;;;1.57;0.80;;;;;;;;;;5032482;28;20188;-76
2021/10/22 01:02:24;;;;;;;1.90;0.90;;;;;;;;;;5036454;28;20220;-76
2021/10/22 01:05:29;;;;;;;1.10;0.80;;;;;;;;;;5025081;28;20216;-76
2021/10/22 01:08:34;;;;;;;2.77;0.90;;;;;;;;;;5036314;28;20189;-76
2021/10/22 01:11:40;;;;;;;3.20;1.03;;;;;;;;;;5036298;28;20216;-75
2021/10/22 01:14:47;;;;;;;1.37;0.63;;;;;;;;;;5036128;28;20675;-75
2021/10/22 01:17:51;;;;;;;3.30;0.93;;;;;;;;;;5024607;28;20200;-75
2021/10/22 01:21:05;;;;;;;1.47;0.47;;;;;;;;;;5024654;28;20690;-76
2021/10/22 01:24:09;;;;;;;1.50;0.73;;;;;;;;;;5036606;28;20536;-75
2021/10/22 01:27:14;;;;;;;0.90;0.50;;;;;;;;;;5036795;28;20212;-76
2021/10/22 01:30:20;;;;;;;1.87;0.67;;;;;;;;;;5036476;28;20177;-76
2021/10/22 01:33:25;;;;;;;0.90;0.50;;;;;;;;;;5037019;28;20180;-75
2021/10/22 01:36:29;;;;;;;0.77;0.60;;;;;;;;;;5013485;28;20181;-75
2021/10/22 01:39:33;;;;;;;1.47;0.67;;;;;;;;;;5024200;28;20640;-75
2021/10/22 01:42:37;;;;;;;3.07;0.60;;;;;;;;;;5024252;28;20212;-75
2021/10/22 01:45:42;;;;;;;1.90;0.70;;;;;;;;;;5036179;28;20213;-75
2021/10/22 01:48:47;;;;;;;0.60;0.50;;;;;;;;;;5035704;28;20181;-76
2021/10/22 01:51:51;;;;;;;2.00;0.60;;;;;;;;;;5036176;28;20220;-75
2021/10/22 01:54:55;;;;;;;1.60;0.60;;;;;;;;;;5035240;28;20204;-75
2021/10/22 01:58:01;;;;;;;0.57;0.57;;;;;;;;;;5036013;28;20192;-75
2021/10/22 02:01:05;;;;;;;0.80;0.47;;;;;;;;;;5036057;28;20212;-75
2021/10/22 02:04:09;;;;;;;0.40;0.40;;;;;;;;;;5023740;28;20205;-76
2021/10/22 02:07:13;;;;;;;0.70;0.60;;;;;;;;;;5023866;28;20216;-76
2021/10/22 02:10:17;;;;;;;1.30;0.67;;;;;;;;;;5023852;28;20636;-76
2021/10/22 02:13:21;;;;;;;0.60;0.40;;;;;;;;;;5035381;28;20189;-75
2021/10/22 02:16:25;;;;;;;3.33;0.50;;;;;;;;;;5035621;28;20201;-76
2021/10/22 02:19:29;;;;;;;1.27;0.60;;;;;;;;;;5034809;28;20516;-75
2021/10/22 02:22:33;;;;;;;1.27;0.60;;;;;;;;;;5023377;28;20715;-75
2021/10/22 02:25:37;;;;;;;2.13;0.60;;;;;;;;;;5035989;28;20664;-76
2021/10/22 02:28:42;;;;;;;2.87;0.50;;;;;;;;;;5023588;28;20184;-76
2021/10/22 02:31:46;;;;;;;1.10;0.60;;;;;;;;;;5012416;28;20217;-76
2021/10/22 02:34:50;;;;;;;1.90;0.70;;;;;;;;;;5023333;28;20201;-76
2021/10/22 02:37:55;;;;;;;1.47;0.80;;;;;;;;;;5023069;28;20197;-75
2021/10/22 02:40:59;;;;;;;2.07;0.80;;;;;;;;;;5035430;28;20216;-76
2021/10/22 02:44:03;;;;;;;2.40;1.10;;;;;;;;;;5035420;28;20193;-76
2021/10/22 02:47:13;;;;;;;1.60;1.10;;;;;;;;;;5034954;28;20224;-76
2021/10/22 02:50:18;;;;;;;3.23;1.33;;;;;;;;;;5035258;28;20184;-76
2021/10/22 02:53:22;;;;;;;2.37;1.40;;;;;;;;;;5034168;28;20213;-75
2021/10/22 02:56:26;;;;;;;2.17;1.47;;;;;;;;;;5022681;28;20193;-76
2021/10/22 02:59:31;;;;;;;1.50;1.40;;;;;;;;;;5022732;28;20663;-76
2021/10/22 03:02:36;;;;;;;3.47;1.60;;;;;;;;;;5033901;28;20224;-76
2021/10/22 03:05:41;;;;;;;1.83;1.30;;;;;;;;;;5022059;28;20200;-76
2021/10/22 03:08:45;;;;;;;2.03;1.50;;;;;;;;;;5020840;28;20200;-76
2021/10/22 03:11:50;;;;;;;2.10;1.50;;;;;;;;;;5022418;28;20224;-76
2021/10/22 03:15:10;;;;;;;2.23;1.30;;;;;;;;;;5011641;28;20213;-76
2021/10/22 03:18:14;;;;;;;2.00;1.30;;;;;;;;;;4961649;28;20218;-75
2021/10/22 03:21:19;;;;;;;2.23;1.47;;;;;;;;;;4983341;28;20221;-75
2021/10/22 03:24:23;;;;;;;3.43;1.37;;;;;;;;;;4992568;28;20190;-75
2021/10/22 03:27:27;;;;;;;2.57;1.27;;;;;;;;;;4981231;28;20215;-75
2021/10/22 03:30:36;;;;;;;2.90;1.57;;;;;;;;;;4963438;28;20206;-74
2021/10/22 03:33:40;;;;;;;4.57;1.77;;;;;;;;;;4983603;28;20538;-75
2021/10/22 03:36:44;;;;;;;3.23;1.30;;;;;;;;;;4993518;28;20186;-75
2021/10/22 03:39:49;;;;;;;4.23;1.30;;;;;;;;;;4994734;28;20201;-75
2021/10/22 03:42:54;;;;;;;4.20;1.40;;;;;;;;;;4981309;28;20661;-78
2021/10/22 03:45:58;;;;;;;2.37;1.27;;;;;;;;;;4954813;28;20211;-77
2021/10/22 03:49:02;;;;;;;1.90;1.10;;;;;;;;;;4990859;28;20190;-78
2021/10/22 03:52:06;;;;;;;3.63;1.30;;;;;;;;;;4995581;28;20221;-77
2021/10/22 03:55:12;;;;;;;2.50;1.30;;;;;;;;;;4996471;28;20182;-78
2021/10/22 03:58:18;;;;;;;2.43;1.30;;;;;;;;;;4996247;28;20174;-78
2021/10/22 04:01:23;;;;;;;3.07;1.43;;;;;;;;;;4974439;28;20222;-79
2021/10/22 04:04:30;;;;;;;3.33;1.40;;;;;;;;;;4985788;28;20185;-78
2021/10/22 04:07:35;;;;;;;2.97;1.30;;;;;;;;;;4997373;28;20222;-78
2021/10/22 04:10:43;;;;;;;2.83;1.30;;;;;;;;;;4997332;28;20218;-79
2021/10/22 04:13:47;;;;;;;2.70;1.23;;;;;;;;;;4985702;28;20198;-79
2021/10/22 04:16:51;;;;;;;3.07;1.40;;;;;;;;;;4996577;28;20664;-78
2021/10/22 04:19:55;;;;;;;3.27;1.50;;;;;;;;;;4985374;28;20185;-78
2021/10/22 04:23:00;;;;;;;2.53;1.23;;;;;;;;;;4997051;28;20190;-79
2021/10/22 04:26:04;;;;;;;4.50;2.27;;;;;;;;;;4996495;28;20186;-78
2021/10/22 04:29:08;;;;;;;5.57;1.53;;;;;;;;;;4996679;28;20683;-78
2021/10/22 04:32:13;;;;;;;4.50;1.60;;;;;;;;;;4985532;28;20222;-78
2021/10/22 04:35:17;;;;;;;3.27;1.63;;;;;;;;;;4996078;28;20202;-79
2021/10/22 04:41:26;;;;;;;2.83;1.40;;;;;;;;;;4997267;28;20217;-78
2021/10/22 04:44:30;;;;;;;5.67;1.67;;;;;;;;;;4996014;28;20186;-78
2021/10/22 04:47:35;;;;;;;2.87;1.50;;;;;;;;;;4973474;28;20209;-77
2021/10/22 04:50:46;;;;;;;5.40;1.83;;;;;;;;;;4996003;28;20226;-78
2021/10/22 04:53:50;;;;;;;4.93;1.53;;;;;;;;;;4985053;28;20202;-78
2021/10/22 04:56:54;;;;;;;3.90;1.20;;;;;;;;;;4996185;28;20178;-78
2021/10/22 04:59:58;;;;;;;11.00;1.80;;;;;;;;;;4985253;28;20194;-78
2021/10/22 05:03:02;;;;;;;6.63;1.33;;;;;;;;;;4996101;28;20531;-77
2021/10/22 05:06:07;;;;;;;5.83;1.50;;;;;;;;;;4996209;28;20187;-78
2021/10/22 05:09:11;;;;;;;4.80;1.70;;;;;;;;;;4984625;28;20186;-78
2021/10/22 05:12:15;;;;;;;4.13;2.03;;;;;;;;;;4997133;28;20221;-78
2021/10/22 05:15:19;;;;;;;4.87;1.60;;;;;;;;;;4973505;28;20190;-78
2021/10/22 05:18:23;;;;;;;4.37;1.67;;;;;;;;;;4996782;28;20186;-78
2021/10/22 05:21:27;;;;;;;10.27;1.70;;;;;;;;;;4997596;28;20226;-78
2021/10/22 05:24:31;;;;;;;5.63;1.70;;;;;;;;;;4974082;28;20186;-78
2021/10/22 05:27:36;;;;;;;3.07;1.50;;;;;;;;;;4998003;28;20218;-78
2021/10/22 05:30:41;;;;;;;3.70;1.60;;;;;;;;;;4986485;28;20213;-78
2021/10/22 05:33:45;;;;;;;5.80;1.90;;;;;;;;;;4998032;28;20644;-77
2021/10/22 05:36:51;;;;;;;4.87;1.90;;;;;;;;;;4996956;28;20182;-78
2021/10/22 05:39:55;;;;;;;5.00;1.50;;;;;;;;;;4985653;28;20182;-78
2021/10/22 05:43:00;;;;;;;6.20;1.80;;;;;;;;;;4998086;28;20190;-78
2021/10/22 05:46:04;;;;;;;8.13;1.90;;;;;;;;;;4986074;28;20186;-78
2021/10/22 05:49:07;;;;;;;8.73;1.60;;;;;;;;;;5000804;28;20182;-78
2021/10/22 05:52:12;;;;;;;9.10;4.40;;;;;;;;;;5000570;28;20221;-78
2021/10/22 05:55:16;;;;;;;9.80;3.63;;;;;;;;;;4999317;28;20182;-78
2021/10/22 05:58:22;;;;;;;9.87;3.80;;;;;;;;;;4987898;28;20179;-78
2021/10/22 06:01:26;;;;;;;5.83;2.50;;;;;;;;;;4999746;28;20226;-77
2021/10/22 06:04:30;;;;;;;6.47;2.27;;;;;;;;;;4999176;28;20625;-78
2021/10/22 06:07:34;;;;;;;10.80;2.30;;;;;;;;;;4988173;28;20205;-78
2021/10/22 06:10:39;;;;;;;7.63;2.53;;;;;;;;;;4987553;28;20213;-79
2021/10/22 06:13:43;;;;;;;9.73;2.67;;;;;;;;;;4988314;28;20191;-77
2021/10/22 06:16:48;;;;;;;7.17;3.30;;;;;;;;;;4999071;28;20214;-78
2021/10/22 06:19:55;;;;;;;12.20;6.40;;;;;;;;;;4999365;28;20625;-78
2021/10/22 06:26:16;;;;;;;7.60;2.33;;;;;;;;;;4999671;28;20190;-78
2021/10/22 06:29:20;;;;;;;4.70;2.03;;;;;;;;;;5000402;28;20182;-77
2021/10/22 06:32:25;;;;;;;6.10;2.50;;;;;;;;;;4987772;28;20221;-77
2021/10/22 06:35:29;;;;;;;4.17;2.03;;;;;;;;;;4999589;28;20182;-78
2021/10/22 06:38:33;;;;;;;9.03;4.87;;;;;;;;;;4999709;28;20629;-77
2021/10/22 06:41:38;;;;;;;9.40;2.67;;;;;;;;;;5000137;28;20217;-77
2021/10/22 06:44:42;;;;;;;7.63;2.40;;;;;;;;;;4999190;28;20186;-78
2021/10/22 06:47:47;;;;;;;6.00;2.10;;;;;;;;;;4999003;28;20213;-77
2021/10/22 06:50:52;;;;;;;5.90;1.93;;;;;;;;;;4998974;28;20214;-77
2021/10/22 06:53:55;;;;;;;6.93;1.80;;;;;;;;;;4987552;28;20645;-77
2021/10/22 06:57:00;;;;;;;9.70;2.03;;;;;;;;;;4999007;28;20182;-79
2021/10/22 07:00:05;;;;;;;7.00;2.00;;;;;;;;;;4999193;28;20636;-78
2021/10/22 07:03:15;;;;;;;7.70;2.13;;;;;;;;;;4998305;28;20182;-77
2021/10/22 07:09:43;;;;;;;8.07;2.30;;;;;;;;;;4998191;28;20645;-77
2021/10/22 07:12:48;;;;;;;4.90;2.20;;;;;;;;;;4987515;28;20186;-78
2021/10/22 07:15:52;;;;;;;12.23;2.17;;;;;;;;;;4975296;28;20213;-78
2021/10/22 07:18:57;;;;;;;8.93;2.73;;;;;;;;;;4987535;28;20507;-78
2021/10/22 07:22:06;;;;;;;7.67;2.40;;;;;;;;;;4998111;28;20214;-78
2021/10/22 07:25:10;;;;;;;7.90;2.43;;;;;;;;;;4975193;28;20194;-77
2021/10/22 07:28:17;;;;;;;6.10;2.20;;;;;;;;;;4975452;28;20209;-77
2021/10/22 07:31:21;;;;;;;7.23;1.97;;;;;;;;;;4986767;28;20221;-76
2021/10/22 07:34:27;;;;;;;10.27;2.27;;;;;;;;;;4986560;28;20641;-77
2021/10/22 07:37:31;;;;;;;6.63;2.17;;;;;;;;;;4997461;28;20178;-78
2021/10/22 07:40:44;;;;;;;6.43;3.10;;;;;;;;;;4998453;28;20182;-78
2021/10/22 07:43:49;;;;;;;5.60;3.33;;;;;;;;;;4986115;28;20202;-77
2021/10/22 07:46:54;;;;;;;7.63;3.10;;;;;;;;;;4985976;28;20206;-78
2021/10/22 07:49:58;;;;;;;9.47;3.77;;;;;;;;;;4998486;28;20190;-78
2021/10/22 07:53:01;;;;;;;8.73;3.27;;;;;;;;;;4986774;28;20194;-77
2021/10/22 07:56:06;;;;;;;11.87;3.00;;;;;;;;;;4998677;28;20511;-78
2021/10/22 07:59:11;;;;;;;7.90;3.20;;;;;;;;;;4986130;28;20178;-77
2021/10/22 08:02:16;;;;;;;10.10;3.40;;;;;;;;;;4996927;28;20221;-77
2021/10/22 08:05:21;;;;;;;8.77;4.10;;;;;;;;;;4974638;28;20186;-78
2021/10/22 08:08:25;;;;;;;9.70;3.47;;;;;;;;;;4997215;28;20214;-77
2021/10/22 08:11:29;;;;;;;13.27;3.90;;;;;;;;;;4995946;28;20222;-77
2021/10/22 08:14:34;;;;;;;9.70;2.80;;;;;;;;;;4996626;28;20539;-77
2021/10/22 08:17:38;;;;;;;8.03;3.43;;;;;;;;;;4985980;28;20194;-78
2021/10/22 08:21:00;;;;;;;9.80;2.90;;;;;;;;;;4995842;28;20221;-77
2021/10/22 08:24:05;;;;;;;7.93;3.57;;;;;;;;;;4985213;28;20182;-77
2021/10/22 08:27:09;;;;;;;8.00;3.13;;;;;;;;;;4995947;28;20190;-78
2021/10/22 08:30:22;;;;;;;10.00;3.00;;;;;;;;;;4995890;28;20634;-77
2021/10/22 08:33:27;;;;;;;6.70;2.37;;;;;;;;;;4984130;28;20190;-77
2021/10/22 08:36:31;;;;;;;5.80;2.23;;;;;;;;;;4972927;28;20538;-78
2021/10/22 08:39:39;;;;;;;10.97;2.57;;;;;;;;;;4972691;28;20183;-78
2021/10/22 08:42:43;;;;;;;7.60;2.37;;;;;;;;;;4995362;28;20519;-79
2021/10/22 08:45:51;;;;;;;7.77;3.00;;;;;;;;;;4973517;28;20177;-77
2021/10/22 08:48:56;;;;;;;9.20;2.13;;;;;;;;;;4984084;28;20221;-77
2021/10/22 08:52:02;;;;;;;9.80;1.97;;;;;;;;;;4995540;28;20222;-78
2021/10/22 08:55:10;;;;;;;8.60;2.20;;;;;;;;;;4995002;28;20202;-77
2021/10/22 08:58:18;;;;;;;8.97;2.40;;;;;;;;;;4961877;28;20228;-77
2021/10/22 09:01:22;;;;;;;9.03;2.30;;;;;;;;;;4995279;28;20222;-78
2021/10/22 09:04:32;;;;;;;11.80;2.63;;;;;;;;;;4985054;28;20190;-76
2021/10/22 09:07:43;;;;;;;3.83;2.03;;;;;;;;;;4983752;28;20672;-77
2021/10/22 09:10:48;;;;;;;8.23;2.10;;;;;;;;;;4983819;28;20217;-77
2021/10/22 09:14:17;;;;;;;16.80;2.10;;;;;;;;;;4984416;28;20637;-78
2021/10/22 09:17:38;;;;;;;7.93;2.73;;;;;;;;;;5050957;22;20758;-74
2021/10/22 09:20:56;;;;;;;5.13;3.13;;;;;;;;;;5040973;28;20216;-74
2021/10/22 09:24:20;;;;;;;11.87;3.27;;;;;;;;;;5056587;28;20185;-74
2021/10/22 09:27:38;;;;;;;11.67;2.57;;;;;;;;;;5057070;28;20184;-74
2021/10/22 09:30:43;;;;;;;9.97;2.53;;;;;;;;;;5044101;28;20240;-74
2021/10/22 09:33:51;;;;;;;10.33;2.37;;;;;;;;;;5044746;28;20180;-74
2021/10/22 09:36:56;;;;;;;8.67;1.90;;;;;;;;;;5056621;28;20217;-74
2021/10/22 09:40:01;;;;;;;11.17;2.20;;;;;;;;;;5044048;28;20180;-74
2021/10/22 09:43:13;;;;;;;12.07;4.60;;;;;;;;;;5056558;28;20184;-74
2021/10/22 09:46:20;;;;;;;9.17;2.83;;;;;;;;;;5056793;28;20193;-74
2021/10/22 09:49:26;;;;;;;6.67;2.20;;;;;;;;;;5044398;28;20208;-74
2021/10/22 09:52:31;;;;;;;10.67;2.60;;;;;;;;;;5043830;28;20220;-74
2021/10/22 09:55:35;;;;;;;10.77;3.07;;;;;;;;;;5044315;28;20184;-74
2021/10/22 09:58:39;;;;;;;10.40;2.80;;;;;;;;;;5056212;28;20515;-74
2021/10/22 10:01:44;;;;;;;13.07;2.73;;;;;;;;;;5043883;28;20230;-73
2021/10/22 10:04:49;;;;;;;9.07;1.83;;;;;;;;;;5043590;28;20550;-73
2021/10/22 10:07:54;;;;;;;14.47;2.50;;;;;;;;;;5032546;28;20220;-73
2021/10/22 10:10:59;;;;;;;8.30;2.33;;;;;;;;;;5055661;28;20219;-74
2021/10/22 10:14:04;;;;;;;10.53;2.20;;;;;;;;;;5032291;28;20234;-74
2021/10/22 10:17:08;;;;;;;11.17;2.67;;;;;;;;;;5055640;28;20215;-74
2021/10/22 10:20:18;;;;;;;10.03;1.87;;;;;;;;;;5055891;28;20185;-73
2021/10/22 10:23:23;;;;;;;6.63;1.97;;;;;;;;;;5032439;28;20208;-74
2021/10/22 10:26:29;;;;;;;9.07;1.93;;;;;;;;;;5043803;28;20639;-74
2021/10/22 10:29:45;;;;;;;12.20;2.37;;;;;;;;;;5055365;28;20211;-74
2021/10/22 10:32:49;;;;;;;9.50;2.23;;;;;;;;;;5042749;28;20191;-74
2021/10/22 10:35:53;;;;;;;11.27;2.00;;;;;;;;;;5043054;28;20188;-74
2021/10/22 10:38:58;;;;;;;10.73;2.23;;;;;;;;;;5055796;28;20188;-73
2021/10/22 10:42:22;;;;;;;10.37;2.30;;;;;;;;;;5054291;28;20234;-74
2021/10/22 10:45:26;;;;;;;9.47;2.27;;;;;;;;;;5055430;28;20543;-74
2021/10/22 10:48:37;;;;;;;10.50;2.17;;;;;;;;;;5042740;28;20215;-74
2021/10/22 10:51:41;;;;;;;10.63;2.20;;;;;;;;;;5042772;28;20233;-74
2021/10/22 10:55:19;;;;;;;8.87;2.20;;;;;;;;;;5054957;28;20182;-74
2021/10/22 10:58:24;;;;;;;6.27;1.77;;;;;;;;;;5042937;28;20184;-74
2021/10/22 11:01:35;;;;;;;5.73;1.63;;;;;;;;;;5054915;28;20220;-73
2021/10/22 11:04:48;;;;;;;8.90;1.70;;;;;;;;;;5054955;28;20192;-74
2021/10/22 11:08:20;;;;;;;9.33;2.03;;;;;;;;;;5054793;28;20196;-74
2021/10/22 11:11:27;;;;;;;11.70;1.97;;;;;;;;;;5054727;28;20709;-73
2021/10/22 11:14:44;;;;;;;7.10;1.83;;;;;;;;;;5042641;28;20653;-74
2021/10/22 11:17:49;;;;;;;11.37;2.13;;;;;;;;;;5054748;28;20248;-73
2021/10/22 11:20:55;;;;;;;7.87;2.20;;;;;;;;;;5055101;28;20225;-74
2021/10/22 11:24:01;;;;;;;9.80;1.93;;;;;;;;;;5054807;28;20184;-74
2021/10/22 11:27:13;;;;;;;10.13;2.27;;;;;;;;;;5054645;28;20192;-74
2021/10/22 11:30:17;;;;;;;11.40;2.20;;;;;;;;;;5042101;28;20582;-73
2021/10/22 11:33:21;;;;;;;9.23;1.90;;;;;;;;;;5054419;28;20205;-74
2021/10/22 11:36:25;;;;;;;8.30;2.30;;;;;;;;;;5042189;28;20180;-74
2021/10/22 11:39:34;;;;;;;8.50;1.93;;;;;;;;;;5054036;28;20196;-74
2021/10/22 11:42:38;;;;;;;7.90;2.13;;;;;;;;;;5054134;28;20223;-73
2021/10/22 11:45:43;;;;;;;6.60;2.00;;;;;;;;;;5029485;28;20184;-73
2021/10/22 11:48:50;;;;;;;15.67;2.10;;;;;;;;;;5041520;28;20208;-74
2021/10/22 11:51:57;;;;;;;10.83;2.23;;;;;;;;;;5054003;28;20725;-73
2021/10/22 11:55:03;;;;;;;5.40;1.60;;;;;;;;;;5053750;28;20566;-73
2021/10/22 11:58:09;;;;;;;7.03;1.53;;;;;;;;;;5042192;28;20204;-73
2021/10/22 12:01:13;;;;;;;9.10;2.03;;;;;;;;;;5053878;28;20224;-73
2021/10/22 12:04:24;;;;;;;6.73;1.67;;;;;;;;;;5053931;28;20184;-73
2021/10/22 12:07:30;;;;;;;8.90;2.00;;;;;;;;;;5053857;28;20509;-73
2021/10/22 12:10:38;;;;;;;7.30;2.47;;;;;;;;;;5041250;28;20180;-73
2021/10/22 12:13:45;;;;;;;10.60;2.30;;;;;;;;;;5041756;28;20180;-73
2021/10/22 12:16:49;;;;;;;9.57;2.33;;;;;;;;;;5053205;28;20210;-73
2021/10/22 12:19:56;;;;;;;6.87;1.53;;;;;;;;;;5041397;28;20172;-73
2021/10/22 12:23:04;;;;;;;7.30;1.80;;;;;;;;;;5041375;28;20180;-73
2021/10/22 12:26:34;;;;;;;8.30;1.60;;;;;;;;;;5030150;28;20192;-73
2021/10/22 12:30:02;;;;;;;6.70;1.80;;;;;;;;;;5030082;28;20208;-73
2021/10/22 12:33:06;;;;;;;7.37;1.73;;;;;;;;;;5029847;28;20524;-73
2021/10/22 12:36:16;;;;;;;7.57;2.60;;;;;;;;;;5041447;28;20188;-73
2021/10/22 12:39:25;;;;;;;8.40;1.87;;;;;;;;;;5041254;28;20172;-73
2021/10/22 12:42:31;;;;;;;10.87;2.07;;;;;;;;;;5052717;28;20579;-73
2021/10/22 12:46:03;;;;;;;7.63;2.03;;;;;;;;;;5052995;28;20716;-73
2021/10/22 12:49:07;;;;;;;8.97;1.90;;;;;;;;;;5041202;28;20212;-73
2021/10/22 12:52:16;;;;;;;10.63;2.13;;;;;;;;;;5040673;28;20223;-73
2021/10/22 12:55:22;;;;;;;7.93;1.80;;;;;;;;;;5053242;28;20652;-73
2021/10/22 12:58:27;;;;;;;6.97;1.90;;;;;;;;;;5057670;28;20188;-73
2021/10/22 13:01:31;;;;;;;8.40;2.00;;;;;;;;;;5044861;28;20219;-73
2021/10/22 13:04:35;;;;;;;7.40;1.83;;;;;;;;;;5022402;28;20188;-73
2021/10/22 13:07:57;;;;;;;13.80;2.23;;;;;;;;;;5045269;28;20615;-74
2021/10/22 13:14:51;;;;;;;4.47;1.40;;;;;;;;;;5057138;28;20188;-74
2021/10/22 13:21:14;;;;;;;4.93;1.30;;;;;;;;;;5057069;28;20560;-73
2021/10/22 13:24:19;;;;;;;7.27;1.60;;;;;;;;;;5056951;28;20184;-74
2021/10/22 13:27:41;;;;;;;6.27;1.20;;;;;;;;;;5056655;28;20184;-73
2021/10/22 13:30:52;;;;;;;3.70;1.17;;;;;;;;;;5056673;28;20232;-73
2021/10/22 13:33:56;;;;;;;5.33;1.40;;;;;;;;;;5044415;28;20192;-73
2021/10/22 13:37:01;;;;;;;3.67;1.10;;;;;;;;;;5044127;28;20199;-73
2021/10/22 13:40:07;;;;;;;8.10;1.30;;;;;;;;;;5056355;28;20524;-73
2021/10/22 13:43:11;;;;;;;5.87;1.27;;;;;;;;;;5056286;28;20184;-74
2021/10/22 13:46:15;;;;;;;8.07;1.40;;;;;;;;;;5044361;28;20188;-73
2021/10/22 13:49:19;;;;;;;7.37;1.10;;;;;;;;;;5056686;28;20215;-73
2021/10/22 13:52:24;;;;;;;6.13;1.53;;;;;;;;;;5044318;28;20223;-73
2021/10/22 13:55:28;;;;;;;3.03;0.90;;;;;;;;;;5056933;28;20184;-74
2021/10/22 13:58:32;;;;;;;5.90;1.70;;;;;;;;;;5056289;28;20184;-74
2021/10/22 14:01:37;;;;;;;7.97;1.30;;;;;;;;;;5055862;28;20212;-73
2021/10/22 14:04:41;;;;;;;7.43;1.90;;;;;;;;;;5032567;28;20189;-73
2021/10/22 14:07:45;;;;;;;4.93;0.90;;;;;;;;;;5043028;28;20181;-73
2021/10/22 14:10:50;;;;;;;5.17;1.00;;;;;;;;;;5043617;28;20228;-73
2021/10/22 14:14:01;;;;;;;6.10;1.17;;;;;;;;;;5056002;28;20635;-73
2021/10/22 14:23:01;;;;;;;3.57;1.40;;;;;;;;;;5055891;28;20184;-73
2021/10/22 14:30:00;;;;;;;5.83;1.40;;;;;;;;;;5043306;28;20552;-73
2021/10/22 14:33:06;;;;;;;6.17;1.40;;;;;;;;;;5043231;28;20185;-73
2021/10/22 14:36:11;;;;;;;7.67;1.60;;;;;;;;;;5043619;28;20520;-73
2021/10/22 14:39:14;;;;;;;2.73;1.13;;;;;;;;;;5042985;28;20188;-73
2021/10/22 14:42:19;;;;;;;1.87;0.87;;;;;;;;;;5055415;28;20224;-73
2021/10/22 14:45:38;;;;;;;4.50;1.40;;;;;;;;;;5055703;28;20184;-73
2021/10/22 14:48:48;;;;;;;5.20;1.20;;;;;;;;;;5055476;28;20181;-73
2021/10/22 14:55:08;;;;;;;8.17;1.60;;;;;;;;;;5043049;28;20184;-73
2021/10/22 14:58:13;;;;;;;6.03;1.10;;;;;;;;;;5055176;28;20184;-73
2021/10/22 15:01:22;;;;;;;6.00;1.40;;;;;;;;;;5043277;28;20207;-73
2021/10/22 15:04:25;;;;;;;4.27;1.60;;;;;;;;;;5055372;28;20623;-74
2021/10/22 15:07:30;;;;;;;2.00;1.00;;;;;;;;;;5055297;28;20180;-73
2021/10/22 15:10:34;;;;;;;5.33;1.17;;;;;;;;;;5055081;28;20215;-73
2021/10/22 15:13:38;;;;;;;6.43;1.30;;;;;;;;;;5042863;28;20188;-73
2021/10/22 15:16:42;;;;;;;14.97;2.00;;;;;;;;;;5054507;28;20548;-74
2021/10/22 15:19:46;;;;;;;4.47;1.47;;;;;;;;;;5071786;22;20709;-78
2021/10/22 15:22:51;;;;;;;4.87;1.53;;;;;;;;;;5016351;28;20180;-78
2021/10/22 15:25:55;;;;;;;4.37;1.20;;;;;;;;;;5039852;28;20185;-77
2021/10/22 15:28:59;;;;;;;3.73;0.80;;;;;;;;;;5015846;28;20624;-77
2021/10/22 15:32:04;;;;;;;6.70;1.60;;;;;;;;;;5015509;28;20216;-77
2021/10/22 15:35:09;;;;;;;4.47;1.47;;;;;;;;;;5027251;28;20546;-77
2021/10/22 15:38:13;;;;;;;5.60;1.40;;;;;;;;;;5015680;28;20185;-78
2021/10/22 15:41:17;;;;;;;2.63;1.17;;;;;;;;;;5015287;28;20225;-77
2021/10/22 15:44:22;;;;;;;4.93;1.70;;;;;;;;;;5038560;28;20193;-78
2021/10/22 15:47:27;;;;;;;4.57;1.60;;;;;;;;;;5026641;28;20181;-77
2021/10/22 15:50:38;;;;;;;6.13;2.53;;;;;;;;;;5026330;28;20667;-78
2021/10/22 15:53:43;;;;;;;2.57;1.00;;;;;;;;;;5026471;28;20636;-79
2021/10/22 15:56:47;;;;;;;5.03;1.70;;;;;;;;;;5014832;28;20189;-78
2021/10/22 15:59:52;;;;;;;5.50;2.00;;;;;;;;;;5015395;28;20181;-78
2021/10/22 16:03:01;;;;;;;7.33;2.67;;;;;;;;;;5026222;28;20185;-78
2021/10/22 16:06:13;;;;;;;5.83;1.97;;;;;;;;;;5038211;28;20185;-79
2021/10/22 16:09:30;;;;;;;4.90;2.00;;;;;;;;;;5026046;28;20529;-77
2021/10/22 16:19:07;;;;;;;1.93;1.20;;;;;;;;;;5026116;28;20212;-78
2021/10/22 16:22:12;;;;;;;3.73;1.80;;;;;;;;;;5014345;28;20216;-77
2021/10/22 16:25:16;;;;;;;5.83;1.20;;;;;;;;;;5025692;28;20180;-77
2021/10/22 16:28:20;;;;;;;3.13;1.60;;;;;;;;;;5025230;28;20197;-78
2021/10/22 16:31:25;;;;;;;5.17;1.77;;;;;;;;;;5013466;28;20568;-78
2021/10/22 16:37:53;;;;;;;4.80;1.73;;;;;;;;;;5014013;28;20280;-79
2021/10/22 16:40:58;;;;;;;7.77;1.67;;;;;;;;;;5013952;28;20560;-77
2021/10/22 16:44:02;;;;;;;6.17;1.30;;;;;;;;;;5037601;28;20513;-78
2021/10/22 16:47:06;;;;;;;4.70;1.80;;;;;;;;;;5024874;28;20181;-77
2021/10/22 16:50:11;;;;;;;5.50;1.50;;;;;;;;;;5002631;28;20212;-79
2021/10/22 16:53:15;;;;;;;4.80;1.30;;;;;;;;;;5012894;28;20205;-78
2021/10/22 16:56:19;;;;;;;6.37;1.40;;;;;;;;;;5013850;28;20184;-78
2021/10/22 16:59:25;;;;;;;2.87;1.13;;;;;;;;;;5014260;28;20188;-79
2021/10/22 17:02:29;;;;;;;2.50;1.33;;;;;;;;;;5024796;28;20565;-78
2021/10/22 17:05:33;;;;;;;4.20;1.37;;;;;;;;;;5013982;28;20544;-77
2021/10/22 17:08:37;;;;;;;3.20;1.40;;;;;;;;;;5024608;28;20659;-77
2021/10/22 17:11:41;;;;;;;6.50;2.13;;;;;;;;;;5013691;28;20228;-78
2021/10/22 17:14:47;;;;;;;4.73;2.20;;;;;;;;;;5024669;28;20184;-78
2021/10/22 17:17:51;;;;;;;9.00;4.23;;;;;;;;;;5002226;28;20184;-76
2021/10/22 17:20:55;;;;;;;11.60;5.50;;;;;;;;;;5037383;28;20548;-77
2021/10/22 17:24:00;;;;;;;10.73;4.40;;;;;;;;;;5014187;28;20623;-76
2021/10/22 17:27:05;;;;;;;5.37;2.63;;;;;;;;;;5025040;28;20624;-77
2021/10/22 17:30:10;;;;;;;7.50;2.47;;;;;;;;;;5024777;28;20220;-77
2021/10/22 17:33:15;;;;;;;9.10;3.10;;;;;;;;;;5025022;28;20201;-78
2021/10/22 17:36:19;;;;;;;8.03;3.50;;;;;;;;;;5024862;28;20189;-79
2021/10/22 17:39:25;;;;;;;7.13;3.40;;;;;;;;;;5024255;28;20180;-79
2021/10/22 17:42:29;;;;;;;6.63;3.10;;;;;;;;;;5013146;28;20576;-77
2021/10/22 17:45:36;;;;;;;5.93;3.00;;;;;;;;;;5017402;28;20185;-78
2021/10/22 17:48:40;;;;;;;6.27;2.10;;;;;;;;;;5016973;28;20189;-79
2021/10/22 17:51:44;;;;;;;6.37;1.60;;;;;;;;;;5016997;28;20707;-77
2021/10/22 17:54:48;;;;;;;6.37;1.63;;;;;;;;;;5027982;28;20204;-78
2021/10/22 17:57:52;;;;;;;4.47;1.47;;;;;;;;;;5017183;28;20544;-77
2021/10/22 18:00:58;;;;;;;5.87;1.50;;;;;;;;;;5028308;28;20220;-79
2021/10/22 18:04:06;;;;;;;6.97;1.60;;;;;;;;;;5016729;28;20204;-79
2021/10/22 18:07:10;;;;;;;2.87;1.10;;;;;;;;;;5016324;28;20192;-79
2021/10/22 18:10:15;;;;;;;5.90;1.60;;;;;;;;;;5028258;28;20204;-78
2021/10/22 18:13:19;;;;;;;3.57;1.50;;;;;;;;;;5016816;28;20185;-79
2021/10/22 18:16:23;;;;;;;8.27;2.83;;;;;;;;;;5016570;28;20188;-78
2021/10/22 18:19:28;;;;;;;6.73;1.93;;;;;;;;;;5016203;28;20213;-77
2021/10/22 18:22:33;;;;;;;7.13;1.43;;;;;;;;;;5016377;28;20217;-77
2021/10/22 18:25:39;;;;;;;5.23;1.77;;;;;;;;;;5016828;28;20177;-78
2021/10/22 18:28:50;;;;;;;2.37;1.03;;;;;;;;;;5016526;28;20184;-79
2021/10/22 18:31:55;;;;;;;5.53;1.57;;;;;;;;;;5027288;28;20691;-78
2021/10/22 18:35:05;;;;;;;7.40;1.83;;;;;;;;;;5027825;28;20185;-79
2021/10/22 18:38:10;;;;;;;3.27;1.33;;;;;;;;;;5028426;28;20185;-76
2021/10/22 18:41:16;;;;;;;5.20;1.50;;;;;;;;;;5015870;28;20559;-78
2021/10/22 18:44:20;;;;;;;3.70;1.63;;;;;;;;;;5016392;28;20189;-78
2021/10/22 18:47:25;;;;;;;6.30;2.60;;;;;;;;;;5027068;28;20189;-77
2021/10/22 18:50:29;;;;;;;5.30;2.50;;;;;;;;;;5027618;28;20699;-77
2021/10/22 18:53:33;;;;;;;7.93;2.03;;;;;;;;;;5038445;28;20185;-78
2021/10/22 18:56:40;;;;;;;7.40;2.47;;;;;;;;;;5016374;28;20200;-79
2021/10/22 18:59:45;;;;;;;9.43;3.30;;;;;;;;;;5005105;28;20205;-78
2021/10/22 19:02:51;;;;;;;6.90;2.20;;;;;;;;;;5016184;28;20185;-77
2021/10/22 19:06:02;;;;;;;6.30;2.10;;;;;;;;;;5015871;28;20185;-77
2021/10/22 19:09:07;;;;;;;3.43;1.47;;;;;;;;;;5027319;28;20189;-76
2021/10/22 19:12:12;;;;;;;7.43;1.97;;;;;;;;;;5016499;28;20228;-78